sensor_id;sensor_type;location;lat;lon;timestamp;P1;durP1;ratioP1;P2;durP2;ratioP2
77888;SDS011;67082;41.704;44.768;2023-05-15T00:02:31;7.10;;;3.17;;
77888;SDS011;67082;41.704;44.768;2023-05-15T00:05:08;4.65;;;2.75;;
77888;SDS011;67082;41.704;44.768;2023-05-15T00:07:37;5.75;;;2.80;;
77888;SDS011;67082;41.704;44.768;2023-05-15T00:10:05;5.65;;;3.30;;
77888;SDS011;67082;41.704;44.768;2023-05-15T00:12:34;7.57;;;2.97;;
77888;SDS011;67082;41.704;44.768;2023-05-15T00:15:03;5.50;;;2.92;;
77888;SDS011;67082;41.704;44.768;2023-05-15T00:17:33;3.95;;;2.70;;
77888;SDS011;67082;41.704;44.768;2023-05-15T00:20:00;7.47;;;2.78;;
77888;SDS011;67082;41.704;44.768;2023-05-15T00:22:30;5.47;;;2.85;;
77888;SDS011;67082;41.704;44.768;2023-05-15T00:24:58;3.92;;;2.72;;
77888;SDS011;67082;41.704;44.768;2023-05-15T00:27:26;3.72;;;2.67;;
77888;SDS011;67082;41.704;44.768;2023-05-15T00:29:54;6.68;;;2.80;;
77888;SDS011;67082;41.704;44.768;2023-05-15T00:32:23;4.00;;;2.70;;
77888;SDS011;67082;41.704;44.768;2023-05-15T00:34:51;6.95;;;3.10;;
77888;SDS011;67082;41.704;44.768;2023-05-15T00:37:20;5.43;;;2.35;;
77888;SDS011;67082;41.704;44.768;2023-05-15T00:39:48;4.75;;;2.47;;
77888;SDS011;67082;41.704;44.768;2023-05-15T00:42:17;3.97;;;2.33;;
77888;SDS011;67082;41.704;44.768;2023-05-15T00:44:46;5.45;;;2.80;;
77888;SDS011;67082;41.704;44.768;2023-05-15T00:47:15;5.20;;;2.58;;
77888;SDS011;67082;41.704;44.768;2023-05-15T00:49:48;4.40;;;2.38;;
77888;SDS011;67082;41.704;44.768;2023-05-15T00:52:20;4.75;;;2.55;;
77888;SDS011;67082;41.704;44.768;2023-05-15T00:54:49;4.22;;;2.60;;
77888;SDS011;67082;41.704;44.768;2023-05-15T00:57:17;4.47;;;2.35;;
77888;SDS011;67082;41.704;44.768;2023-05-15T00:59:50;6.80;;;2.50;;
77888;SDS011;67082;41.704;44.768;2023-05-15T01:02:19;5.72;;;2.13;;
77888;SDS011;67082;41.704;44.768;2023-05-15T01:04:47;3.25;;;2.13;;
77888;SDS011;67082;41.704;44.768;2023-05-15T01:07:17;2.97;;;2.05;;
77888;SDS011;67082;41.704;44.768;2023-05-15T01:09:46;3.47;;;2.20;;
77888;SDS011;67082;41.704;44.768;2023-05-15T01:12:16;3.70;;;2.30;;
77888;SDS011;67082;41.704;44.768;2023-05-15T01:14:46;6.43;;;2.20;;
77888;SDS011;67082;41.704;44.768;2023-05-15T01:17:15;7.80;;;2.15;;
77888;SDS011;67082;41.704;44.768;2023-05-15T01:19:43;3.10;;;2.20;;
77888;SDS011;67082;41.704;44.768;2023-05-15T01:27:57;3.78;;;2.10;;
77888;SDS011;67082;41.704;44.768;2023-05-15T01:30:29;2.50;;;1.70;;
77888;SDS011;67082;41.704;44.768;2023-05-15T01:33:06;2.63;;;1.83;;
77888;SDS011;67082;41.704;44.768;2023-05-15T01:35:47;2.95;;;1.70;;
77888;SDS011;67082;41.704;44.768;2023-05-15T01:38:41;3.67;;;1.80;;
77888;SDS011;67082;41.704;44.768;2023-05-15T01:41:25;3.47;;;1.85;;
77888;SDS011;67082;41.704;44.768;2023-05-15T01:44:03;2.80;;;1.83;;
77888;SDS011;67082;41.704;44.768;2023-05-15T01:46:37;2.80;;;1.67;;
77888;SDS011;67082;41.704;44.768;2023-05-15T01:49:11;2.47;;;1.73;;
77888;SDS011;67082;41.704;44.768;2023-05-15T01:51:40;3.45;;;1.70;;
77888;SDS011;67082;41.704;44.768;2023-05-15T01:54:11;3.63;;;1.80;;
77888;SDS011;67082;41.704;44.768;2023-05-15T01:56:42;2.50;;;1.70;;
77888;SDS011;67082;41.704;44.768;2023-05-15T01:59:13;3.22;;;1.70;;
77888;SDS011;67082;41.704;44.768;2023-05-15T02:01:43;3.50;;;2.08;;
77888;SDS011;67082;41.704;44.768;2023-05-15T02:04:13;3.55;;;1.52;;
77888;SDS011;67082;41.704;44.768;2023-05-15T02:06:42;2.38;;;1.70;;
77888;SDS011;67082;41.704;44.768;2023-05-15T02:09:11;3.53;;;1.45;;
77888;SDS011;67082;41.704;44.768;2023-05-15T02:11:41;2.75;;;1.73;;
77888;SDS011;67082;41.704;44.768;2023-05-15T02:14:10;2.35;;;1.50;;
77888;SDS011;67082;41.704;44.768;2023-05-15T02:16:39;3.58;;;1.50;;
77888;SDS011;67082;41.704;44.768;2023-05-15T02:19:08;2.58;;;1.60;;
77888;SDS011;67082;41.704;44.768;2023-05-15T02:21:36;4.22;;;1.70;;
77888;SDS011;67082;41.704;44.768;2023-05-15T02:24:06;3.85;;;1.58;;
77888;SDS011;67082;41.704;44.768;2023-05-15T02:32:04;2.30;;;1.35;;
77888;SDS011;67082;41.704;44.768;2023-05-15T02:37:31;2.42;;;1.38;;
77888;SDS011;67082;41.704;44.768;2023-05-15T02:40:07;3.72;;;1.50;;
77888;SDS011;67082;41.704;44.768;2023-05-15T02:42:39;2.47;;;1.40;;
77888;SDS011;67082;41.704;44.768;2023-05-15T02:45:09;2.28;;;1.40;;
77888;SDS011;67082;41.704;44.768;2023-05-15T02:47:38;5.70;;;1.90;;
77888;SDS011;67082;41.704;44.768;2023-05-15T02:50:07;2.28;;;1.50;;
77888;SDS011;67082;41.704;44.768;2023-05-15T02:52:37;2.38;;;1.42;;
77888;SDS011;67082;41.704;44.768;2023-05-15T02:55:05;2.22;;;1.33;;
77888;SDS011;67082;41.704;44.768;2023-05-15T02:57:34;2.10;;;1.35;;
77888;SDS011;67082;41.704;44.768;2023-05-15T03:00:02;3.65;;;1.40;;
77888;SDS011;67082;41.704;44.768;2023-05-15T03:02:33;4.47;;;1.42;;
77888;SDS011;67082;41.704;44.768;2023-05-15T03:05:02;2.33;;;1.15;;
77888;SDS011;67082;41.704;44.768;2023-05-15T03:07:30;1.85;;;1.10;;
77888;SDS011;67082;41.704;44.768;2023-05-15T03:09:59;3.80;;;1.40;;
77888;SDS011;67082;41.704;44.768;2023-05-15T03:12:27;2.13;;;1.20;;
77888;SDS011;67082;41.704;44.768;2023-05-15T03:14:55;1.83;;;1.00;;
77888;SDS011;67082;41.704;44.768;2023-05-15T03:17:24;2.35;;;1.20;;
77888;SDS011;67082;41.704;44.768;2023-05-15T03:19:52;3.08;;;1.48;;
77888;SDS011;67082;41.704;44.768;2023-05-15T03:22:20;2.83;;;1.23;;
77888;SDS011;67082;41.704;44.768;2023-05-15T03:24:49;2.45;;;1.40;;
77888;SDS011;67082;41.704;44.768;2023-05-15T03:27:17;1.92;;;1.08;;
77888;SDS011;67082;41.704;44.768;2023-05-15T03:29:47;1.80;;;1.10;;
77888;SDS011;67082;41.704;44.768;2023-05-15T03:32:17;3.05;;;1.30;;
77888;SDS011;67082;41.704;44.768;2023-05-15T03:34:46;2.80;;;1.10;;
77888;SDS011;67082;41.704;44.768;2023-05-15T03:37:16;2.28;;;1.15;;
77888;SDS011;67082;41.704;44.768;2023-05-15T03:39:45;2.00;;;1.10;;
77888;SDS011;67082;41.704;44.768;2023-05-15T03:42:13;2.80;;;1.20;;
77888;SDS011;67082;41.704;44.768;2023-05-15T03:44:42;2.08;;;1.25;;
77888;SDS011;67082;41.704;44.768;2023-05-15T03:47:12;2.03;;;1.30;;
77888;SDS011;67082;41.704;44.768;2023-05-15T03:49:40;2.50;;;1.27;;
77888;SDS011;67082;41.704;44.768;2023-05-15T03:52:08;1.88;;;1.27;;
77888;SDS011;67082;41.704;44.768;2023-05-15T03:54:37;1.92;;;1.30;;
77888;SDS011;67082;41.704;44.768;2023-05-15T03:57:07;3.35;;;1.35;;
77888;SDS011;67082;41.704;44.768;2023-05-15T03:59:36;6.65;;;1.42;;
77888;SDS011;67082;41.704;44.768;2023-05-15T04:02:04;2.55;;;1.40;;
77888;SDS011;67082;41.704;44.768;2023-05-15T04:04:33;3.35;;;1.40;;
77888;SDS011;67082;41.704;44.768;2023-05-15T04:07:03;2.60;;;1.70;;
77888;SDS011;67082;41.704;44.768;2023-05-15T04:09:32;2.50;;;1.50;;
77888;SDS011;67082;41.704;44.768;2023-05-15T04:12:00;2.10;;;1.30;;
77888;SDS011;67082;41.704;44.768;2023-05-15T04:14:28;2.97;;;1.45;;
77888;SDS011;67082;41.704;44.768;2023-05-15T04:16:56;2.53;;;1.45;;
77888;SDS011;67082;41.704;44.768;2023-05-15T04:19:24;2.65;;;1.35;;
77888;SDS011;67082;41.704;44.768;2023-05-15T04:21:53;2.00;;;1.30;;
77888;SDS011;67082;41.704;44.768;2023-05-15T04:24:21;2.08;;;1.45;;
77888;SDS011;67082;41.704;44.768;2023-05-15T04:26:49;2.90;;;1.40;;
77888;SDS011;67082;41.704;44.768;2023-05-15T04:29:18;3.08;;;1.63;;
77888;SDS011;67082;41.704;44.768;2023-05-15T04:31:45;2.40;;;1.70;;
77888;SDS011;67082;41.704;44.768;2023-05-15T04:34:14;4.53;;;1.42;;
77888;SDS011;67082;41.704;44.768;2023-05-15T04:36:43;3.10;;;1.50;;
77888;SDS011;67082;41.704;44.768;2023-05-15T04:39:12;3.28;;;1.60;;
77888;SDS011;67082;41.704;44.768;2023-05-15T04:41:40;3.22;;;1.45;;
77888;SDS011;67082;41.704;44.768;2023-05-15T04:44:12;2.47;;;1.60;;
77888;SDS011;67082;41.704;44.768;2023-05-15T04:46:40;3.55;;;1.42;;
77888;SDS011;67082;41.704;44.768;2023-05-15T04:49:08;2.78;;;1.50;;
77888;SDS011;67082;41.704;44.768;2023-05-15T04:51:37;2.70;;;1.48;;
77888;SDS011;67082;41.704;44.768;2023-05-15T04:54:06;4.07;;;1.70;;
77888;SDS011;67082;41.704;44.768;2023-05-15T04:56:34;2.92;;;1.48;;
77888;SDS011;67082;41.704;44.768;2023-05-15T04:59:02;3.03;;;1.50;;
77888;SDS011;67082;41.704;44.768;2023-05-15T05:01:31;2.22;;;1.50;;
77888;SDS011;67082;41.704;44.768;2023-05-15T05:04:01;4.45;;;1.80;;
77888;SDS011;67082;41.704;44.768;2023-05-15T05:06:28;2.65;;;1.48;;
77888;SDS011;67082;41.704;44.768;2023-05-15T05:08:58;2.58;;;1.48;;
77888;SDS011;67082;41.704;44.768;2023-05-15T05:11:26;2.25;;;1.40;;
77888;SDS011;67082;41.704;44.768;2023-05-15T05:13:54;3.33;;;1.65;;
77888;SDS011;67082;41.704;44.768;2023-05-15T05:16:22;2.40;;;1.48;;
77888;SDS011;67082;41.704;44.768;2023-05-15T05:18:50;3.22;;;1.40;;
77888;SDS011;67082;41.704;44.768;2023-05-15T05:21:18;3.28;;;1.40;;
77888;SDS011;67082;41.704;44.768;2023-05-15T05:23:46;2.55;;;1.38;;
77888;SDS011;67082;41.704;44.768;2023-05-15T05:26:14;2.65;;;1.23;;
77888;SDS011;67082;41.704;44.768;2023-05-15T05:28:42;4.65;;;1.60;;
77888;SDS011;67082;41.704;44.768;2023-05-15T05:31:10;2.40;;;1.40;;
77888;SDS011;67082;41.704;44.768;2023-05-15T05:33:39;1.92;;;1.23;;
77888;SDS011;67082;41.704;44.768;2023-05-15T05:36:07;2.83;;;1.30;;
77888;SDS011;67082;41.704;44.768;2023-05-15T05:38:38;2.97;;;1.42;;
77888;SDS011;67082;41.704;44.768;2023-05-15T05:41:06;3.10;;;1.50;;
77888;SDS011;67082;41.704;44.768;2023-05-15T05:43:35;2.35;;;1.50;;
77888;SDS011;67082;41.704;44.768;2023-05-15T05:46:03;2.45;;;1.40;;
77888;SDS011;67082;41.704;44.768;2023-05-15T05:48:31;3.42;;;1.30;;
77888;SDS011;67082;41.704;44.768;2023-05-15T05:51:00;2.03;;;1.40;;
77888;SDS011;67082;41.704;44.768;2023-05-15T05:53:28;1.80;;;1.20;;
77888;SDS011;67082;41.704;44.768;2023-05-15T05:55:56;5.00;;;1.23;;
77888;SDS011;67082;41.704;44.768;2023-05-15T05:58:24;3.30;;;1.48;;
77888;SDS011;67082;41.704;44.768;2023-05-15T06:00:52;3.65;;;2.03;;
77888;SDS011;67082;41.704;44.768;2023-05-15T06:03:22;4.75;;;2.42;;
77888;SDS011;67082;41.704;44.768;2023-05-15T06:05:51;3.38;;;1.40;;
77888;SDS011;67082;41.704;44.768;2023-05-15T06:08:21;2.25;;;1.50;;
77888;SDS011;67082;41.704;44.768;2023-05-15T06:10:49;2.63;;;1.60;;
77888;SDS011;67082;41.704;44.768;2023-05-15T06:13:17;6.55;;;4.15;;
77888;SDS011;67082;41.704;44.768;2023-05-15T06:15:45;2.63;;;1.33;;
77888;SDS011;67082;41.704;44.768;2023-05-15T06:18:14;2.45;;;1.30;;
77888;SDS011;67082;41.704;44.768;2023-05-15T06:20:42;2.35;;;1.42;;
77888;SDS011;67082;41.704;44.768;2023-05-15T06:23:10;3.88;;;1.33;;
77888;SDS011;67082;41.704;44.768;2023-05-15T06:25:38;3.85;;;1.05;;
77888;SDS011;67082;41.704;44.768;2023-05-15T06:28:06;2.53;;;1.30;;
77888;SDS011;67082;41.704;44.768;2023-05-15T06:30:34;7.53;;;1.10;;
77888;SDS011;67082;41.704;44.768;2023-05-15T06:33:03;2.95;;;1.08;;
77888;SDS011;67082;41.704;44.768;2023-05-15T06:35:31;3.05;;;1.13;;
77888;SDS011;67082;41.704;44.768;2023-05-15T06:37:59;3.42;;;1.20;;
77888;SDS011;67082;41.704;44.768;2023-05-15T06:40:27;2.20;;;1.20;;
77888;SDS011;67082;41.704;44.768;2023-05-15T06:42:56;5.07;;;1.30;;
77888;SDS011;67082;41.704;44.768;2023-05-15T06:45:25;3.72;;;1.20;;
77888;SDS011;67082;41.704;44.768;2023-05-15T06:47:54;3.90;;;1.20;;
77888;SDS011;67082;41.704;44.768;2023-05-15T06:50:26;3.92;;;1.20;;
77888;SDS011;67082;41.704;44.768;2023-05-15T06:52:54;2.05;;;1.25;;
77888;SDS011;67082;41.704;44.768;2023-05-15T06:55:22;1.80;;;1.10;;
77888;SDS011;67082;41.704;44.768;2023-05-15T06:57:50;2.35;;;1.20;;
77888;SDS011;67082;41.704;44.768;2023-05-15T07:00:18;1.73;;;1.00;;
77888;SDS011;67082;41.704;44.768;2023-05-15T07:02:47;2.75;;;1.30;;
77888;SDS011;67082;41.704;44.768;2023-05-15T07:05:16;6.97;;;1.02;;
77888;SDS011;67082;41.704;44.768;2023-05-15T07:07:44;3.40;;;1.13;;
77888;SDS011;67082;41.704;44.768;2023-05-15T07:10:12;2.67;;;1.23;;
77888;SDS011;67082;41.704;44.768;2023-05-15T07:12:40;2.95;;;1.23;;
77888;SDS011;67082;41.704;44.768;2023-05-15T07:15:08;3.72;;;1.40;;
77888;SDS011;67082;41.704;44.768;2023-05-15T07:17:37;6.53;;;1.00;;
77888;SDS011;67082;41.704;44.768;2023-05-15T07:20:05;1.27;;;0.80;;
77888;SDS011;67082;41.704;44.768;2023-05-15T07:22:34;1.92;;;1.10;;
77888;SDS011;67082;41.704;44.768;2023-05-15T07:25:18;1.98;;;1.02;;
77888;SDS011;67082;41.704;44.768;2023-05-15T07:27:46;2.67;;;1.20;;
77888;SDS011;67082;41.704;44.768;2023-05-15T07:30:14;4.97;;;2.10;;
77888;SDS011;67082;41.704;44.768;2023-05-15T07:32:43;4.25;;;1.35;;
77888;SDS011;67082;41.704;44.768;2023-05-15T07:35:10;3.20;;;1.20;;
77888;SDS011;67082;41.704;44.768;2023-05-15T07:37:40;2.85;;;1.40;;
77888;SDS011;67082;41.704;44.768;2023-05-15T07:40:08;2.83;;;1.30;;
77888;SDS011;67082;41.704;44.768;2023-05-15T07:42:37;2.40;;;1.35;;
77888;SDS011;67082;41.704;44.768;2023-05-15T07:45:06;4.97;;;1.30;;
77888;SDS011;67082;41.704;44.768;2023-05-15T07:47:34;2.22;;;1.30;;
77888;SDS011;67082;41.704;44.768;2023-05-15T07:50:02;2.05;;;1.25;;
77888;SDS011;67082;41.704;44.768;2023-05-15T07:52:31;2.22;;;1.27;;
77888;SDS011;67082;41.704;44.768;2023-05-15T07:54:59;1.65;;;1.17;;
77888;SDS011;67082;41.704;44.768;2023-05-15T07:57:30;2.13;;;1.10;;
77888;SDS011;67082;41.704;44.768;2023-05-15T07:59:58;5.07;;;1.10;;
77888;SDS011;67082;41.704;44.768;2023-05-15T08:02:26;2.45;;;1.30;;
77888;SDS011;67082;41.704;44.768;2023-05-15T08:04:54;3.17;;;1.30;;
77888;SDS011;67082;41.704;44.768;2023-05-15T08:07:23;2.40;;;1.40;;
77888;SDS011;67082;41.704;44.768;2023-05-15T08:09:51;2.85;;;1.20;;
77888;SDS011;67082;41.704;44.768;2023-05-15T08:12:19;3.45;;;1.35;;
77888;SDS011;67082;41.704;44.768;2023-05-15T08:14:52;5.10;;;1.42;;
77888;SDS011;67082;41.704;44.768;2023-05-15T08:17:24;3.78;;;1.60;;
77888;SDS011;67082;41.704;44.768;2023-05-15T08:19:52;4.10;;;1.80;;
77888;SDS011;67082;41.704;44.768;2023-05-15T08:22:20;4.03;;;1.30;;
77888;SDS011;67082;41.704;44.768;2023-05-15T08:24:49;2.95;;;1.48;;
77888;SDS011;67082;41.704;44.768;2023-05-15T08:27:18;2.88;;;1.70;;
77888;SDS011;67082;41.704;44.768;2023-05-15T08:29:46;4.82;;;1.70;;
77888;SDS011;67082;41.704;44.768;2023-05-15T08:32:15;2.95;;;1.70;;
77888;SDS011;67082;41.704;44.768;2023-05-15T08:34:43;3.58;;;1.70;;
77888;SDS011;67082;41.704;44.768;2023-05-15T08:37:11;3.55;;;2.10;;
77888;SDS011;67082;41.704;44.768;2023-05-15T08:39:39;3.20;;;1.73;;
77888;SDS011;67082;41.704;44.768;2023-05-15T08:42:10;5.90;;;1.95;;
77888;SDS011;67082;41.704;44.768;2023-05-15T08:44:46;3.90;;;1.65;;
77888;SDS011;67082;41.704;44.768;2023-05-15T08:47:15;5.57;;;1.90;;
77888;SDS011;67082;41.704;44.768;2023-05-15T08:52:33;5.03;;;2.20;;
77888;SDS011;67082;41.704;44.768;2023-05-15T08:55:02;7.22;;;1.90;;
77888;SDS011;67082;41.704;44.768;2023-05-15T08:57:32;3.63;;;1.50;;
77888;SDS011;67082;41.704;44.768;2023-05-15T09:00:03;6.45;;;2.00;;
77888;SDS011;67082;41.704;44.768;2023-05-15T09:02:41;4.05;;;2.00;;
77888;SDS011;67082;41.704;44.768;2023-05-15T09:05:10;5.75;;;2.10;;
77888;SDS011;67082;41.704;44.768;2023-05-15T09:07:38;3.10;;;1.90;;
77888;SDS011;67082;41.704;44.768;2023-05-15T09:10:08;3.65;;;2.03;;
77888;SDS011;67082;41.704;44.768;2023-05-15T09:12:38;4.65;;;1.75;;
77888;SDS011;67082;41.704;44.768;2023-05-15T09:15:13;3.55;;;1.88;;
77888;SDS011;67082;41.704;44.768;2023-05-15T09:17:45;3.70;;;1.73;;
77888;SDS011;67082;41.704;44.768;2023-05-15T09:22:55;3.05;;;2.00;;
77888;SDS011;67082;41.704;44.768;2023-05-15T09:25:36;4.63;;;2.30;;
77888;SDS011;67082;41.704;44.768;2023-05-15T09:28:23;3.50;;;2.03;;
77888;SDS011;67082;41.704;44.768;2023-05-15T09:31:01;4.93;;;2.08;;
77888;SDS011;67082;41.704;44.768;2023-05-15T09:33:32;4.18;;;1.95;;
77888;SDS011;67082;41.704;44.768;2023-05-15T09:36:02;5.03;;;2.58;;
77888;SDS011;67082;41.704;44.768;2023-05-15T09:38:32;5.28;;;2.42;;
77888;SDS011;67082;41.704;44.768;2023-05-15T09:41:01;5.07;;;2.42;;
77888;SDS011;67082;41.704;44.768;2023-05-15T09:43:39;3.33;;;2.20;;
77888;SDS011;67082;41.704;44.768;2023-05-15T09:46:08;5.13;;;2.55;;
77888;SDS011;67082;41.704;44.768;2023-05-15T09:48:39;7.95;;;2.50;;
77888;SDS011;67082;41.704;44.768;2023-05-15T09:51:13;6.47;;;2.40;;
77888;SDS011;67082;41.704;44.768;2023-05-15T09:53:48;4.88;;;2.22;;
77888;SDS011;67082;41.704;44.768;2023-05-15T09:56:18;5.95;;;2.90;;
77888;SDS011;67082;41.704;44.768;2023-05-15T09:58:53;6.40;;;2.10;;
77888;SDS011;67082;41.704;44.768;2023-05-15T10:01:23;7.18;;;2.42;;
77888;SDS011;67082;41.704;44.768;2023-05-15T10:03:59;5.00;;;2.35;;
77888;SDS011;67082;41.704;44.768;2023-05-15T10:06:33;7.93;;;2.30;;
77888;SDS011;67082;41.704;44.768;2023-05-15T10:09:09;12.40;;;2.50;;
77888;SDS011;67082;41.704;44.768;2023-05-15T10:11:38;4.75;;;2.30;;
77888;SDS011;67082;41.704;44.768;2023-05-15T10:14:11;5.80;;;2.03;;
77888;SDS011;67082;41.704;44.768;2023-05-15T10:16:40;3.80;;;2.10;;
77888;SDS011;67082;41.704;44.768;2023-05-15T10:19:09;3.15;;;2.00;;
77888;SDS011;67082;41.704;44.768;2023-05-15T10:21:39;4.80;;;2.15;;
77888;SDS011;67082;41.704;44.768;2023-05-15T10:24:08;4.60;;;2.10;;
77888;SDS011;67082;41.704;44.768;2023-05-15T10:26:38;4.05;;;2.00;;
77888;SDS011;67082;41.704;44.768;2023-05-15T10:29:11;4.85;;;2.17;;
77888;SDS011;67082;41.704;44.768;2023-05-15T10:31:41;4.93;;;2.45;;
77888;SDS011;67082;41.704;44.768;2023-05-15T10:34:10;5.22;;;2.45;;
77888;SDS011;67082;41.704;44.768;2023-05-15T10:36:38;11.30;;;2.67;;
77888;SDS011;67082;41.704;44.768;2023-05-15T10:39:06;10.32;;;2.50;;
77888;SDS011;67082;41.704;44.768;2023-05-15T10:41:35;5.82;;;2.25;;
77888;SDS011;67082;41.704;44.768;2023-05-15T10:44:05;7.07;;;3.13;;
77888;SDS011;67082;41.704;44.768;2023-05-15T10:46:34;4.60;;;2.40;;
77888;SDS011;67082;41.704;44.768;2023-05-15T10:49:03;6.30;;;2.22;;
77888;SDS011;67082;41.704;44.768;2023-05-15T10:51:32;3.83;;;2.05;;
77888;SDS011;67082;41.704;44.768;2023-05-15T10:54:04;6.55;;;2.38;;
77888;SDS011;67082;41.704;44.768;2023-05-15T10:56:32;4.53;;;1.83;;
77888;SDS011;67082;41.704;44.768;2023-05-15T10:59:05;5.68;;;1.80;;
77888;SDS011;67082;41.704;44.768;2023-05-15T11:01:35;5.97;;;2.15;;
77888;SDS011;67082;41.704;44.768;2023-05-15T11:04:07;4.72;;;2.10;;
77888;SDS011;67082;41.704;44.768;2023-05-15T11:06:38;12.18;;;2.25;;
77888;SDS011;67082;41.704;44.768;2023-05-15T11:12:03;3.35;;;2.05;;
77888;SDS011;67082;41.704;44.768;2023-05-15T11:14:36;4.95;;;2.28;;
77888;SDS011;67082;41.704;44.768;2023-05-15T11:17:22;5.47;;;2.35;;
77888;SDS011;67082;41.704;44.768;2023-05-15T11:22:20;5.53;;;2.50;;
77888;SDS011;67082;41.704;44.768;2023-05-15T11:30:08;8.63;;;3.03;;
77888;SDS011;67082;41.704;44.768;2023-05-15T11:32:48;7.85;;;2.55;;
77888;SDS011;67082;41.704;44.768;2023-05-15T11:35:26;6.93;;;2.72;;
77888;SDS011;67082;41.704;44.768;2023-05-15T11:37:56;5.25;;;2.25;;
77888;SDS011;67082;41.704;44.768;2023-05-15T11:43:20;6.63;;;2.53;;
77888;SDS011;67082;41.704;44.768;2023-05-15T11:48:31;5.55;;;2.65;;
77888;SDS011;67082;41.704;44.768;2023-05-15T11:51:04;6.97;;;2.42;;
77888;SDS011;67082;41.704;44.768;2023-05-15T11:53:43;5.93;;;2.60;;
77888;SDS011;67082;41.704;44.768;2023-05-15T11:56:22;10.90;;;2.30;;
77888;SDS011;67082;41.704;44.768;2023-05-15T11:58:58;8.95;;;2.55;;
77888;SDS011;67082;41.704;44.768;2023-05-15T12:01:37;4.93;;;2.35;;
77888;SDS011;67082;41.704;44.768;2023-05-15T12:04:13;4.07;;;2.20;;
77888;SDS011;67082;41.704;44.768;2023-05-15T12:06:44;3.65;;;2.38;;
77888;SDS011;67082;41.704;44.768;2023-05-15T12:09:14;7.72;;;2.40;;
77888;SDS011;67082;41.704;44.768;2023-05-15T12:11:47;6.22;;;2.65;;
77888;SDS011;67082;41.704;44.768;2023-05-15T12:14:15;4.38;;;2.60;;
77888;SDS011;67082;41.704;44.768;2023-05-15T12:16:44;5.88;;;2.95;;
77888;SDS011;67082;41.704;44.768;2023-05-15T12:19:11;4.05;;;2.60;;
77888;SDS011;67082;41.704;44.768;2023-05-15T12:21:44;5.18;;;2.75;;
77888;SDS011;67082;41.704;44.768;2023-05-15T12:24:13;4.78;;;2.97;;
77888;SDS011;67082;41.704;44.768;2023-05-15T12:26:41;6.53;;;2.60;;
77888;SDS011;67082;41.704;44.768;2023-05-15T12:29:09;9.07;;;5.65;;
77888;SDS011;67082;41.704;44.768;2023-05-15T12:31:37;4.93;;;2.78;;
77888;SDS011;67082;41.704;44.768;2023-05-15T12:34:06;8.43;;;2.58;;
77888;SDS011;67082;41.704;44.768;2023-05-15T12:36:34;5.00;;;2.70;;
77888;SDS011;67082;41.704;44.768;2023-05-15T12:39:05;8.15;;;2.60;;
77888;SDS011;67082;41.704;44.768;2023-05-15T12:41:35;41.53;;;7.90;;
77888;SDS011;67082;41.704;44.768;2023-05-15T12:44:14;8.35;;;3.17;;
77888;SDS011;67082;41.704;44.768;2023-05-15T12:46:43;5.78;;;3.17;;
77888;SDS011;67082;41.704;44.768;2023-05-15T12:49:12;8.00;;;2.75;;
77888;SDS011;67082;41.704;44.768;2023-05-15T12:51:41;5.13;;;2.47;;
77888;SDS011;67082;41.704;44.768;2023-05-15T12:54:16;18.60;;;4.35;;
77888;SDS011;67082;41.704;44.768;2023-05-15T12:56:46;7.97;;;3.17;;
77888;SDS011;67082;41.704;44.768;2023-05-15T12:59:14;4.60;;;2.63;;
77888;SDS011;67082;41.704;44.768;2023-05-15T13:01:43;5.45;;;2.90;;
77888;SDS011;67082;41.704;44.768;2023-05-15T13:04:11;8.95;;;2.95;;
77888;SDS011;67082;41.704;44.768;2023-05-15T13:06:39;4.93;;;2.60;;
77888;SDS011;67082;41.704;44.768;2023-05-15T13:09:14;5.63;;;2.75;;
77888;SDS011;67082;41.704;44.768;2023-05-15T13:11:49;9.38;;;2.90;;
77888;SDS011;67082;41.704;44.768;2023-05-15T13:14:17;8.15;;;3.00;;
77888;SDS011;67082;41.704;44.768;2023-05-15T13:16:46;6.43;;;2.78;;
77888;SDS011;67082;41.704;44.768;2023-05-15T13:19:14;5.65;;;2.75;;
77888;SDS011;67082;41.704;44.768;2023-05-15T13:21:45;7.72;;;2.78;;
77888;SDS011;67082;41.704;44.768;2023-05-15T13:24:16;4.43;;;2.80;;
77888;SDS011;67082;41.704;44.768;2023-05-15T13:26:45;6.45;;;2.75;;
77888;SDS011;67082;41.704;44.768;2023-05-15T13:29:13;6.88;;;2.70;;
77888;SDS011;67082;41.704;44.768;2023-05-15T13:31:41;8.77;;;2.67;;
77888;SDS011;67082;41.704;44.768;2023-05-15T13:34:10;6.68;;;2.60;;
77888;SDS011;67082;41.704;44.768;2023-05-15T13:36:38;5.72;;;3.15;;
77888;SDS011;67082;41.704;44.768;2023-05-15T13:39:06;6.78;;;2.78;;
77888;SDS011;67082;41.704;44.768;2023-05-15T13:41:35;6.88;;;3.00;;
77888;SDS011;67082;41.704;44.768;2023-05-15T13:44:04;5.75;;;2.92;;
77888;SDS011;67082;41.704;44.768;2023-05-15T13:46:35;3.72;;;2.47;;
77888;SDS011;67082;41.704;44.768;2023-05-15T13:49:03;4.65;;;2.85;;
77888;SDS011;67082;41.704;44.768;2023-05-15T13:51:32;8.07;;;3.10;;
77888;SDS011;67082;41.704;44.768;2023-05-15T13:54:00;7.25;;;3.10;;
77888;SDS011;67082;41.704;44.768;2023-05-15T13:56:28;8.48;;;3.28;;
77888;SDS011;67082;41.704;44.768;2023-05-15T13:58:56;5.18;;;2.78;;
77888;SDS011;67082;41.704;44.768;2023-05-15T14:01:24;4.53;;;2.97;;
77888;SDS011;67082;41.704;44.768;2023-05-15T14:03:52;6.35;;;3.20;;
77888;SDS011;67082;41.704;44.768;2023-05-15T14:06:20;5.72;;;2.92;;
77888;SDS011;67082;41.704;44.768;2023-05-15T14:08:48;7.40;;;2.92;;
77888;SDS011;67082;41.704;44.768;2023-05-15T14:11:17;8.23;;;4.85;;
77888;SDS011;67082;41.704;44.768;2023-05-15T14:13:44;8.45;;;3.30;;
77888;SDS011;67082;41.704;44.768;2023-05-15T14:16:14;11.63;;;3.75;;
77888;SDS011;67082;41.704;44.768;2023-05-15T14:18:41;8.93;;;3.25;;
77888;SDS011;67082;41.704;44.768;2023-05-15T14:21:14;5.10;;;2.72;;
77888;SDS011;67082;41.704;44.768;2023-05-15T14:23:42;7.43;;;2.67;;
77888;SDS011;67082;41.704;44.768;2023-05-15T14:26:11;8.23;;;2.72;;
77888;SDS011;67082;41.704;44.768;2023-05-15T14:28:38;5.88;;;2.70;;
77888;SDS011;67082;41.704;44.768;2023-05-15T14:31:07;3.65;;;2.70;;
77888;SDS011;67082;41.704;44.768;2023-05-15T14:33:35;5.25;;;2.70;;
77888;SDS011;67082;41.704;44.768;2023-05-15T14:36:03;7.70;;;3.40;;
77888;SDS011;67082;41.704;44.768;2023-05-15T14:38:31;6.43;;;3.00;;
77888;SDS011;67082;41.704;44.768;2023-05-15T14:40:59;5.70;;;2.70;;
77888;SDS011;67082;41.704;44.768;2023-05-15T14:43:28;6.20;;;2.83;;
77888;SDS011;67082;41.704;44.768;2023-05-15T14:45:57;7.20;;;2.50;;
77888;SDS011;67082;41.704;44.768;2023-05-15T14:48:30;5.38;;;3.00;;
77888;SDS011;67082;41.704;44.768;2023-05-15T14:50:59;5.72;;;3.00;;
77888;SDS011;67082;41.704;44.768;2023-05-15T14:53:27;4.25;;;2.95;;
77888;SDS011;67082;41.704;44.768;2023-05-15T14:55:56;6.43;;;3.20;;
77888;SDS011;67082;41.704;44.768;2023-05-15T14:58:25;7.40;;;3.35;;
77888;SDS011;67082;41.704;44.768;2023-05-15T15:00:57;7.32;;;3.20;;
77888;SDS011;67082;41.704;44.768;2023-05-15T15:03:25;7.10;;;3.20;;
77888;SDS011;67082;41.704;44.768;2023-05-15T15:05:56;6.32;;;3.42;;
77888;SDS011;67082;41.704;44.768;2023-05-15T15:08:24;5.30;;;2.60;;
77888;SDS011;67082;41.704;44.768;2023-05-15T15:10:52;4.95;;;2.80;;
77888;SDS011;67082;41.704;44.768;2023-05-15T15:13:20;3.97;;;2.80;;
77888;SDS011;67082;41.704;44.768;2023-05-15T15:15:49;7.70;;;2.92;;
77888;SDS011;67082;41.704;44.768;2023-05-15T15:18:18;8.63;;;3.53;;
77888;SDS011;67082;41.704;44.768;2023-05-15T15:20:47;6.45;;;2.70;;
77888;SDS011;67082;41.704;44.768;2023-05-15T15:23:16;3.80;;;2.58;;
77888;SDS011;67082;41.704;44.768;2023-05-15T15:25:44;7.43;;;2.50;;